Terminal Aerodrome Forecast
Issued by NWS Boston, MA

Home | Current Version | Previous Version | Text Only | Print | Product List | Glossary Off
Versions: 1 2 3 4 5 6 7 8 9 10 11 12 13 14 15 16 17 18 19 20 21 22 23 24 25 26 27 28 29 30 31 32 33 34 35 36
000 FTUS41 KBOX 072104 AAA TAFORH TAF AMD KORH 072104Z 0721/0818 19011G22KT P6SM VCSH BKN025 FM072300 20011G19KT P6SM BKN025 FM080100 21010KT P6SM BKN020 FM080600 23010KT 5SM BR SCT003 BKN015 FM081200 25009KT P6SM BKN050 FM081600 27008KT 5SM -SHRA OVC050=

USA.gov is the U.S. government's official web portal to all federal, state and local government web resources and services.